sensor_id;sensor_type;location;lat;lon;timestamp;pressure;altitude;pressure_sealevel;temperature;humidity
65173;BME280;51758;52.218;5.172;2022-12-10T00:01:07;100699.88;;;-1.13;100.00
65173;BME280;51758;52.218;5.172;2022-12-10T00:03:36;100688.03;;;-1.26;100.00
65173;BME280;51758;52.218;5.172;2022-12-10T00:06:05;100701.63;;;-1.13;100.00
65173;BME280;51758;52.218;5.172;2022-12-10T00:08:35;100706.97;;;-1.16;100.00
65173;BME280;51758;52.218;5.172;2022-12-10T00:11:04;100708.78;;;-1.05;100.00
65173;BME280;51758;52.218;5.172;2022-12-10T00:13:33;100716.63;;;-1.20;100.00
65173;BME280;51758;52.218;5.172;2022-12-10T00:16:03;100723.16;;;-1.16;100.00
65173;BME280;51758;52.218;5.172;2022-12-10T00:18:32;100710.47;;;-1.17;100.00
65173;BME280;51758;52.218;5.172;2022-12-10T00:21:01;100713.34;;;-1.22;100.00
65173;BME280;51758;52.218;5.172;2022-12-10T00:23:29;100711.38;;;-1.18;100.00
65173;BME280;51758;52.218;5.172;2022-12-10T00:26:03;100716.34;;;-1.28;100.00
65173;BME280;51758;52.218;5.172;2022-12-10T00:28:31;100712.53;;;-1.35;100.00
65173;BME280;51758;52.218;5.172;2022-12-10T00:31:03;100715.81;;;-1.33;100.00
65173;BME280;51758;52.218;5.172;2022-12-10T00:33:31;100711.72;;;-1.35;100.00
65173;BME280;51758;52.218;5.172;2022-12-10T00:36:02;100707.13;;;-1.43;100.00
65173;BME280;51758;52.218;5.172;2022-12-10T00:38:30;100711.91;;;-1.38;100.00
65173;BME280;51758;52.218;5.172;2022-12-10T00:40:58;100707.63;;;-1.38;100.00
65173;BME280;51758;52.218;5.172;2022-12-10T00:43:27;100695.16;;;-1.55;100.00
65173;BME280;51758;52.218;5.172;2022-12-10T00:45:55;100717.84;;;-1.38;100.00
65173;BME280;51758;52.218;5.172;2022-12-10T00:48:23;100707.94;;;-1.42;100.00
65173;BME280;51758;52.218;5.172;2022-12-10T00:50:56;100708.66;;;-1.40;100.00
65173;BME280;51758;52.218;5.172;2022-12-10T00:53:24;100715.22;;;-1.49;100.00
65173;BME280;51758;52.218;5.172;2022-12-10T00:55:52;100717.06;;;-1.51;100.00
65173;BME280;51758;52.218;5.172;2022-12-10T00:58:21;100718.00;;;-1.52;100.00
65173;BME280;51758;52.218;5.172;2022-12-10T01:00:50;100716.56;;;-1.56;100.00
65173;BME280;51758;52.218;5.172;2022-12-10T01:03:17;100715.00;;;-1.46;100.00
65173;BME280;51758;52.218;5.172;2022-12-10T01:05:45;100720.66;;;-1.54;100.00
65173;BME280;51758;52.218;5.172;2022-12-10T01:08:13;100724.72;;;-1.51;100.00
65173;BME280;51758;52.218;5.172;2022-12-10T01:10:41;100725.88;;;-1.42;100.00
65173;BME280;51758;52.218;5.172;2022-12-10T01:13:08;100720.13;;;-1.59;100.00
65173;BME280;51758;52.218;5.172;2022-12-10T01:15:37;100731.91;;;-1.43;100.00
65173;BME280;51758;52.218;5.172;2022-12-10T01:18:06;100735.59;;;-1.48;100.00
65173;BME280;51758;52.218;5.172;2022-12-10T01:20:35;100739.59;;;-1.56;100.00
65173;BME280;51758;52.218;5.172;2022-12-10T01:23:04;100742.97;;;-1.56;100.00
65173;BME280;51758;52.218;5.172;2022-12-10T01:25:32;100752.50;;;-1.58;100.00
65173;BME280;51758;52.218;5.172;2022-12-10T01:27:59;100743.19;;;-1.59;100.00
65173;BME280;51758;52.218;5.172;2022-12-10T01:30:27;100738.97;;;-1.60;100.00
65173;BME280;51758;52.218;5.172;2022-12-10T01:32:55;100741.03;;;-1.65;100.00
65173;BME280;51758;52.218;5.172;2022-12-10T01:35:24;100738.34;;;-1.63;100.00
65173;BME280;51758;52.218;5.172;2022-12-10T01:37:51;100744.53;;;-1.53;100.00
65173;BME280;51758;52.218;5.172;2022-12-10T01:40:19;100735.41;;;-1.57;100.00
65173;BME280;51758;52.218;5.172;2022-12-10T01:42:47;100748.81;;;-1.54;100.00
65173;BME280;51758;52.218;5.172;2022-12-10T01:45:14;100760.28;;;-1.47;100.00
65173;BME280;51758;52.218;5.172;2022-12-10T01:47:42;100762.13;;;-1.49;100.00
65173;BME280;51758;52.218;5.172;2022-12-10T01:50:10;100754.25;;;-1.46;100.00
65173;BME280;51758;52.218;5.172;2022-12-10T01:52:39;100761.41;;;-1.51;100.00
65173;BME280;51758;52.218;5.172;2022-12-10T01:55:39;100762.03;;;-1.47;100.00
65173;BME280;51758;52.218;5.172;2022-12-10T01:58:08;100765.59;;;-1.62;100.00
65173;BME280;51758;52.218;5.172;2022-12-10T02:00:40;100772.16;;;-1.58;100.00
65173;BME280;51758;52.218;5.172;2022-12-10T02:03:13;100765.59;;;-1.62;100.00
65173;BME280;51758;52.218;5.172;2022-12-10T02:05:43;100773.28;;;-1.50;100.00
65173;BME280;51758;52.218;5.172;2022-12-10T02:08:18;100766.22;;;-1.33;100.00
65173;BME280;51758;52.218;5.172;2022-12-10T02:10:55;100763.66;;;-1.21;100.00
65173;BME280;51758;52.218;5.172;2022-12-10T02:13:28;100771.25;;;-1.32;100.00
65173;BME280;51758;52.218;5.172;2022-12-10T02:16:02;100759.16;;;-1.42;100.00
65173;BME280;51758;52.218;5.172;2022-12-10T02:18:37;100718.00;;;-1.65;100.00
65173;BME280;51758;52.218;5.172;2022-12-10T02:21:08;100742.56;;;-1.50;100.00
65173;BME280;51758;52.218;5.172;2022-12-10T02:23:43;100757.63;;;-1.32;100.00
65173;BME280;51758;52.218;5.172;2022-12-10T02:26:15;100752.50;;;-1.32;100.00
65173;BME280;51758;52.218;5.172;2022-12-10T02:28:51;100753.94;;;-1.28;100.00
65173;BME280;51758;52.218;5.172;2022-12-10T02:31:26;100754.34;;;-1.34;100.00
65173;BME280;51758;52.218;5.172;2022-12-10T02:33:58;100763.34;;;-1.29;100.00
65173;BME280;51758;52.218;5.172;2022-12-10T02:36:29;100758.44;;;-1.32;100.00
65173;BME280;51758;52.218;5.172;2022-12-10T02:39:01;100744.28;;;-1.37;100.00
65173;BME280;51758;52.218;5.172;2022-12-10T02:41:33;100753.31;;;-1.32;100.00
65173;BME280;51758;52.218;5.172;2022-12-10T02:44:04;100754.53;;;-1.25;100.00
65173;BME280;51758;52.218;5.172;2022-12-10T02:46:36;100760.88;;;-1.18;100.00
65173;BME280;51758;52.218;5.172;2022-12-10T02:49:06;100761.59;;;-1.16;100.00
65173;BME280;51758;52.218;5.172;2022-12-10T02:51:34;100763.03;;;-1.24;100.00
65173;BME280;51758;52.218;5.172;2022-12-10T02:54:04;100765.41;;;-1.34;100.00
65173;BME280;51758;52.218;5.172;2022-12-10T02:56:34;100766.63;;;-1.27;100.00
65173;BME280;51758;52.218;5.172;2022-12-10T02:59:10;100766.63;;;-1.27;100.00
65173;BME280;51758;52.218;5.172;2022-12-10T03:01:51;100778.09;;;-1.20;100.00
65173;BME280;51758;52.218;5.172;2022-12-10T03:04:26;100776.34;;;-1.19;100.00
65173;BME280;51758;52.218;5.172;2022-12-10T03:07:01;100775.81;;;-1.12;100.00
65173;BME280;51758;52.218;5.172;2022-12-10T03:09:34;100767.84;;;-1.20;100.00
65173;BME280;51758;52.218;5.172;2022-12-10T03:12:09;100769.28;;;-1.16;100.00
65173;BME280;51758;52.218;5.172;2022-12-10T03:14:42;100763.44;;;-1.18;100.00
65173;BME280;51758;52.218;5.172;2022-12-10T03:17:14;100767.94;;;-1.21;100.00
65173;BME280;51758;52.218;5.172;2022-12-10T03:19:46;100768.97;;;-1.24;100.00
65173;BME280;51758;52.218;5.172;2022-12-10T03:22:16;100764.78;;;-1.25;100.00
65173;BME280;51758;52.218;5.172;2022-12-10T03:24:46;100761.59;;;-1.16;100.00
65173;BME280;51758;52.218;5.172;2022-12-10T03:27:16;100760.88;;;-1.18;100.00
65173;BME280;51758;52.218;5.172;2022-12-10T03:29:47;100762.53;;;-1.17;100.00
65173;BME280;51758;52.218;5.172;2022-12-10T03:32:19;100760.06;;;-1.18;100.00
65173;BME280;51758;52.218;5.172;2022-12-10T03:34:49;100755.31;;;-1.12;100.00
65173;BME280;51758;52.218;5.172;2022-12-10T03:37:19;100759.03;;;-1.16;100.00
65173;BME280;51758;52.218;5.172;2022-12-10T03:39:48;100755.91;;;-0.95;100.00
65173;BME280;51758;52.218;5.172;2022-12-10T03:42:16;100750.00;;;-1.09;100.00
65173;BME280;51758;52.218;5.172;2022-12-10T03:44:44;100756.16;;;-1.24;100.00
65173;BME280;51758;52.218;5.172;2022-12-10T03:47:14;100745.72;;;-1.21;100.00
65173;BME280;51758;52.218;5.172;2022-12-10T03:49:43;100743.88;;;-1.19;100.00
65173;BME280;51758;52.218;5.172;2022-12-10T03:52:11;100740.88;;;-1.13;100.00
65173;BME280;51758;52.218;5.172;2022-12-10T03:54:39;100739.97;;;-1.24;100.00
65173;BME280;51758;52.218;5.172;2022-12-10T03:57:07;100733.81;;;-1.22;100.00
65173;BME280;51758;52.218;5.172;2022-12-10T03:59:34;100742.94;;;-1.18;100.00
65173;BME280;51758;52.218;5.172;2022-12-10T04:02:02;100741.94;;;-1.15;100.00
65173;BME280;51758;52.218;5.172;2022-12-10T04:04:30;100741.31;;;-1.19;100.00
65173;BME280;51758;52.218;5.172;2022-12-10T04:07:00;100751.03;;;-1.11;100.00
65173;BME280;51758;52.218;5.172;2022-12-10T04:09:28;100748.88;;;-1.04;100.00
65173;BME280;51758;52.218;5.172;2022-12-10T04:11:56;100755.03;;;-1.07;100.00
65173;BME280;51758;52.218;5.172;2022-12-10T04:14:24;100754.06;;;-0.93;100.00
65173;BME280;51758;52.218;5.172;2022-12-10T04:17:10;100756.34;;;-1.01;100.00
65173;BME280;51758;52.218;5.172;2022-12-10T04:19:39;100733.09;;;-1.24;100.00
65173;BME280;51758;52.218;5.172;2022-12-10T04:22:08;100741.94;;;-1.15;100.00
65173;BME280;51758;52.218;5.172;2022-12-10T04:24:53;100747.88;;;-1.15;100.00
65173;BME280;51758;52.218;5.172;2022-12-10T04:27:47;100743.66;;;-1.16;100.00
65173;BME280;51758;52.218;5.172;2022-12-10T04:30:14;100751.13;;;-1.13;100.00
65173;BME280;51758;52.218;5.172;2022-12-10T04:32:42;100763.03;;;-1.24;100.00
65173;BME280;51758;52.218;5.172;2022-12-10T04:35:10;100761.28;;;-1.24;100.00
65173;BME280;51758;52.218;5.172;2022-12-10T04:37:39;100764.66;;;-1.11;100.00
65173;BME280;51758;52.218;5.172;2022-12-10T04:40:08;100751.75;;;-1.09;100.00
65173;BME280;51758;52.218;5.172;2022-12-10T04:42:36;100765.47;;;-1.10;100.00
65173;BME280;51758;52.218;5.172;2022-12-10T04:45:05;100759.25;;;-1.19;100.00
65173;BME280;51758;52.218;5.172;2022-12-10T04:47:33;100757.59;;;-1.20;100.00
65173;BME280;51758;52.218;5.172;2022-12-10T04:50:00;100762.53;;;-1.17;100.00
65173;BME280;51758;52.218;5.172;2022-12-10T04:52:28;100768.66;;;-1.19;100.00
65173;BME280;51758;52.218;5.172;2022-12-10T04:54:57;100761.50;;;-1.14;100.00
65173;BME280;51758;52.218;5.172;2022-12-10T04:57:25;100765.81;;;-1.15;100.00
65173;BME280;51758;52.218;5.172;2022-12-10T04:59:53;100759.16;;;-1.17;100.00
65173;BME280;51758;52.218;5.172;2022-12-10T05:02:20;100763.72;;;-1.10;100.00
65173;BME280;51758;52.218;5.172;2022-12-10T05:04:48;100758.59;;;-1.10;100.00
65173;BME280;51758;52.218;5.172;2022-12-10T05:07:16;100763.94;;;-1.13;100.00
65173;BME280;51758;52.218;5.172;2022-12-10T05:09:44;100753.63;;;-1.36;100.00
65173;BME280;51758;52.218;5.172;2022-12-10T05:12:13;100771.34;;;-1.21;100.00
65173;BME280;51758;52.218;5.172;2022-12-10T05:14:41;100773.28;;;-1.24;100.00
65173;BME280;51758;52.218;5.172;2022-12-10T05:17:08;100765.91;;;-1.29;100.00
65173;BME280;51758;52.218;5.172;2022-12-10T05:19:36;100771.75;;;-1.27;100.00
65173;BME280;51758;52.218;5.172;2022-12-10T05:22:04;100768.69;;;-1.32;100.00
65173;BME280;51758;52.218;5.172;2022-12-10T05:24:49;100762.94;;;-1.35;100.00
65173;BME280;51758;52.218;5.172;2022-12-10T05:27:18;100762.09;;;-1.23;100.00
65173;BME280;51758;52.218;5.172;2022-12-10T05:29:46;100767.34;;;-1.25;100.00
65173;BME280;51758;52.218;5.172;2022-12-10T05:32:13;100769.88;;;-1.25;100.00
65173;BME280;51758;52.218;5.172;2022-12-10T05:34:41;100763.34;;;-1.29;100.00
65173;BME280;51758;52.218;5.172;2022-12-10T05:37:09;100770.94;;;-1.40;100.00
65173;BME280;51758;52.218;5.172;2022-12-10T05:39:36;100760.81;;;-1.29;100.00
65173;BME280;51758;52.218;5.172;2022-12-10T05:42:04;100771.03;;;-1.29;100.00
65173;BME280;51758;52.218;5.172;2022-12-10T05:44:33;100765.28;;;-1.20;100.00
65173;BME280;51758;52.218;5.172;2022-12-10T05:47:01;100765.09;;;-1.29;100.00
65173;BME280;51758;52.218;5.172;2022-12-10T05:49:29;100766.94;;;-1.31;100.00
65173;BME280;51758;52.218;5.172;2022-12-10T05:51:56;100768.69;;;-1.45;100.00
65173;BME280;51758;52.218;5.172;2022-12-10T05:54:24;100774.72;;;-1.33;100.00
65173;BME280;51758;52.218;5.172;2022-12-10T05:56:52;100769.69;;;-1.34;100.00
65173;BME280;51758;52.218;5.172;2022-12-10T05:59:20;100773.28;;;-1.37;100.00
65173;BME280;51758;52.218;5.172;2022-12-10T06:01:49;100771.88;;;-1.41;100.00
65173;BME280;51758;52.218;5.172;2022-12-10T06:04:16;100780.97;;;-1.24;100.00
65173;BME280;51758;52.218;5.172;2022-12-10T06:06:44;100790.06;;;-1.08;100.00
65173;BME280;51758;52.218;5.172;2022-12-10T06:09:13;100786.31;;;-1.27;100.00
65173;BME280;51758;52.218;5.172;2022-12-10T06:11:41;100788.75;;;-1.38;100.00
65173;BME280;51758;52.218;5.172;2022-12-10T06:14:09;100782.00;;;-1.39;100.00
65173;BME280;51758;52.218;5.172;2022-12-10T06:16:38;100786.81;;;-1.35;100.00
65173;BME280;51758;52.218;5.172;2022-12-10T06:19:07;100790.47;;;-1.14;100.00
65173;BME280;51758;52.218;5.172;2022-12-10T06:21:35;100789.28;;;-1.33;100.00
65173;BME280;51758;52.218;5.172;2022-12-10T06:24:03;100788.16;;;-1.42;100.00
65173;BME280;51758;52.218;5.172;2022-12-10T06:26:30;100785.25;;;-1.37;100.00
65173;BME280;51758;52.218;5.172;2022-12-10T06:28:58;100788.34;;;-1.32;100.00
65173;BME280;51758;52.218;5.172;2022-12-10T06:31:26;100791.72;;;-1.32;100.00
65173;BME280;51758;52.218;5.172;2022-12-10T06:33:54;100791.63;;;-1.30;100.00
65173;BME280;51758;52.218;5.172;2022-12-10T06:36:23;100794.09;;;-1.29;100.00
65173;BME280;51758;52.218;5.172;2022-12-10T06:38:51;100805.25;;;-1.30;100.00
65173;BME280;51758;52.218;5.172;2022-12-10T06:41:19;100800.84;;;-1.28;100.00
65173;BME280;51758;52.218;5.172;2022-12-10T06:43:48;100810.38;;;-1.30;100.00
65173;BME280;51758;52.218;5.172;2022-12-10T06:46:18;100801.16;;;-1.45;100.00
65173;BME280;51758;52.218;5.172;2022-12-10T06:48:46;100808.03;;;-1.33;100.00
65173;BME280;51758;52.218;5.172;2022-12-10T06:51:14;100818.25;;;-1.58;100.00
65173;BME280;51758;52.218;5.172;2022-12-10T06:53:45;100808.09;;;-1.60;100.00
65173;BME280;51758;52.218;5.172;2022-12-10T06:56:15;100804.44;;;-1.43;100.00
65173;BME280;51758;52.218;5.172;2022-12-10T06:58:43;100806.38;;;-1.47;100.00
65173;BME280;51758;52.218;5.172;2022-12-10T07:01:13;100814.59;;;-1.41;100.00
65173;BME280;51758;52.218;5.172;2022-12-10T07:03:41;100810.59;;;-1.33;100.00
65173;BME280;51758;52.218;5.172;2022-12-10T07:06:10;100823.38;;;-1.46;100.00
65173;BME280;51758;52.218;5.172;2022-12-10T07:08:38;100824.19;;;-1.45;100.00
65173;BME280;51758;52.218;5.172;2022-12-10T07:11:15;100838.56;;;-1.42;100.00
65173;BME280;51758;52.218;5.172;2022-12-10T07:13:43;100831.69;;;-1.55;100.00
65173;BME280;51758;52.218;5.172;2022-12-10T07:16:12;100833.00;;;-1.49;100.00
65173;BME280;51758;52.218;5.172;2022-12-10T07:18:41;100839.13;;;-1.52;100.00
65173;BME280;51758;52.218;5.172;2022-12-10T07:21:18;100841.69;;;-1.52;100.00
65173;BME280;51758;52.218;5.172;2022-12-10T07:23:47;100841.69;;;-1.52;100.00
65173;BME280;51758;52.218;5.172;2022-12-10T07:26:16;100840.50;;;-1.33;100.00
65173;BME280;51758;52.218;5.172;2022-12-10T07:28:44;100836.09;;;-1.44;100.00
65173;BME280;51758;52.218;5.172;2022-12-10T07:31:19;100841.31;;;-1.46;100.00
65173;BME280;51758;52.218;5.172;2022-12-10T07:33:47;100836.91;;;-1.43;100.00
65173;BME280;51758;52.218;5.172;2022-12-10T07:36:15;100836.91;;;-1.43;100.00
65173;BME280;51758;52.218;5.172;2022-12-10T07:38:42;100840.38;;;-1.45;100.00
65173;BME280;51758;52.218;5.172;2022-12-10T07:41:12;100838.22;;;-1.38;100.00
65173;BME280;51758;52.218;5.172;2022-12-10T07:43:42;100831.97;;;-1.47;100.00
65173;BME280;51758;52.218;5.172;2022-12-10T07:46:13;100844.69;;;-1.45;100.00
65173;BME280;51758;52.218;5.172;2022-12-10T07:48:42;100813.41;;;-1.63;100.00
65173;BME280;51758;52.218;5.172;2022-12-10T07:51:10;100833.22;;;-1.39;100.00
65173;BME280;51758;52.218;5.172;2022-12-10T07:53:38;100814.78;;;-1.45;100.00
65173;BME280;51758;52.218;5.172;2022-12-10T07:56:06;100851.66;;;-1.22;100.00
65173;BME280;51758;52.218;5.172;2022-12-10T07:58:35;100850.53;;;-1.30;100.00
65173;BME280;51758;52.218;5.172;2022-12-10T08:01:07;100854.53;;;-1.14;100.00
65173;BME280;51758;52.218;5.172;2022-12-10T08:03:36;100845.09;;;-1.26;100.00
65173;BME280;51758;52.218;5.172;2022-12-10T08:06:05;100850.34;;;-1.27;100.00
65173;BME280;51758;52.218;5.172;2022-12-10T08:08:34;100850.44;;;-1.29;100.00
65173;BME280;51758;52.218;5.172;2022-12-10T08:11:03;100848.69;;;-1.41;100.00
65173;BME280;51758;52.218;5.172;2022-12-10T08:13:31;100856.16;;;-1.38;100.00
65173;BME280;51758;52.218;5.172;2022-12-10T08:16:00;100862.09;;;-1.25;100.00
65173;BME280;51758;52.218;5.172;2022-12-10T08:18:30;100859.25;;;-1.08;100.00
65173;BME280;51758;52.218;5.172;2022-12-10T08:20:58;100818.88;;;-1.29;100.00
65173;BME280;51758;52.218;5.172;2022-12-10T08:23:25;100859.06;;;-1.17;100.00
65173;BME280;51758;52.218;5.172;2022-12-10T08:25:53;100866.03;;;-1.19;100.00
65173;BME280;51758;52.218;5.172;2022-12-10T08:28:21;100869.09;;;-1.27;100.00
65173;BME280;51758;52.218;5.172;2022-12-10T08:30:49;100864.38;;;-1.33;100.00
65173;BME280;51758;52.218;5.172;2022-12-10T08:33:16;100877.47;;;-1.25;100.00
65173;BME280;51758;52.218;5.172;2022-12-10T08:35:45;100874.63;;;-1.33;100.00
65173;BME280;51758;52.218;5.172;2022-12-10T08:38:13;100883.31;;;-1.35;100.00
65173;BME280;51758;52.218;5.172;2022-12-10T08:40:41;100881.38;;;-1.32;100.00
65173;BME280;51758;52.218;5.172;2022-12-10T08:43:09;100880.84;;;-1.37;100.00
65173;BME280;51758;52.218;5.172;2022-12-10T08:45:37;100895.13;;;-1.20;100.00
65173;BME280;51758;52.218;5.172;2022-12-10T08:48:04;100901.69;;;-1.03;100.00
65173;BME280;51758;52.218;5.172;2022-12-10T08:50:32;100903.94;;;-0.86;100.00
65173;BME280;51758;52.218;5.172;2022-12-10T08:53:01;100905.09;;;-1.03;100.00
65173;BME280;51758;52.218;5.172;2022-12-10T08:55:29;100910.09;;;-1.14;100.00
65173;BME280;51758;52.218;5.172;2022-12-10T08:57:57;100899.44;;;-1.08;100.00
65173;BME280;51758;52.218;5.172;2022-12-10T09:00:25;100899.22;;;-1.05;100.00
65173;BME280;51758;52.218;5.172;2022-12-10T09:02:53;100914.19;;;-0.86;100.00
65173;BME280;51758;52.218;5.172;2022-12-10T09:05:20;100912.97;;;-1.06;100.00
65173;BME280;51758;52.218;5.172;2022-12-10T09:07:48;100910.50;;;-1.08;100.00
65173;BME280;51758;52.218;5.172;2022-12-10T09:10:17;100907.94;;;-0.95;100.00
65173;BME280;51758;52.218;5.172;2022-12-10T09:12:45;100916.34;;;-0.93;100.00
65173;BME280;51758;52.218;5.172;2022-12-10T09:15:13;100910.50;;;-1.08;100.00
65173;BME280;51758;52.218;5.172;2022-12-10T09:17:41;100912.66;;;-1.01;100.00
65173;BME280;51758;52.218;5.172;2022-12-10T09:20:09;100925.47;;;-1.01;100.00
65173;BME280;51758;52.218;5.172;2022-12-10T09:22:37;100920.84;;;-0.96;100.00
65173;BME280;51758;52.218;5.172;2022-12-10T09:25:06;100922.91;;;-1.27;100.00
65173;BME280;51758;52.218;5.172;2022-12-10T09:27:37;100931.06;;;-1.22;100.00
65173;BME280;51758;52.218;5.172;2022-12-10T09:30:06;100928.72;;;-1.25;100.00
65173;BME280;51758;52.218;5.172;2022-12-10T09:32:34;100932.44;;;-1.16;100.00
65173;BME280;51758;52.218;5.172;2022-12-10T09:35:02;100938.03;;;-1.24;100.00
65173;BME280;51758;52.218;5.172;2022-12-10T09:37:30;100934.69;;;-0.99;100.00
65173;BME280;51758;52.218;5.172;2022-12-10T09:39:57;100939.81;;;-1.12;100.00
65173;BME280;51758;52.218;5.172;2022-12-10T09:42:34;100938.06;;;-1.11;100.00
65173;BME280;51758;52.218;5.172;2022-12-10T09:45:09;100935.94;;;-1.04;100.00
65173;BME280;51758;52.218;5.172;2022-12-10T09:47:45;100935.41;;;-1.10;100.00
65173;BME280;51758;52.218;5.172;2022-12-10T09:50:20;100940.03;;;-1.15;100.00
65173;BME280;51758;52.218;5.172;2022-12-10T09:52:51;100933.53;;;-1.20;100.00
65173;BME280;51758;52.218;5.172;2022-12-10T09:55:31;100937.22;;;-1.12;100.00
65173;BME280;51758;52.218;5.172;2022-12-10T09:57:59;100929.56;;;-1.12;100.00
65173;BME280;51758;52.218;5.172;2022-12-10T10:00:34;100936.84;;;-1.18;100.00
65173;BME280;51758;52.218;5.172;2022-12-10T10:03:03;100942.44;;;-1.26;100.00
65173;BME280;51758;52.218;5.172;2022-12-10T10:05:33;100944.31;;;-1.28;100.00
65173;BME280;51758;52.218;5.172;2022-12-10T10:08:04;100949.22;;;-1.12;100.00
65173;BME280;51758;52.218;5.172;2022-12-10T10:10:34;100950.94;;;-1.25;100.00
65173;BME280;51758;52.218;5.172;2022-12-10T10:13:14;100943.91;;;-1.09;100.00
65173;BME280;51758;52.218;5.172;2022-12-10T10:15:45;100944.34;;;-1.02;100.00
65173;BME280;51758;52.218;5.172;2022-12-10T10:18:17;100948.22;;;-0.97;100.00
65173;BME280;51758;52.218;5.172;2022-12-10T10:20:49;100947.59;;;-1.00;100.00
65173;BME280;51758;52.218;5.172;2022-12-10T10:23:17;100945.03;;;-1.00;100.00
65173;BME280;51758;52.218;5.172;2022-12-10T10:25:45;100944.34;;;-0.90;100.00
65173;BME280;51758;52.218;5.172;2022-12-10T10:28:17;100934.28;;;-0.93;100.00
65173;BME280;51758;52.218;5.172;2022-12-10T10:30:47;100944.03;;;-0.98;100.00
65173;BME280;51758;52.218;5.172;2022-12-10T10:33:15;100956.44;;;-1.04;100.00
65173;BME280;51758;52.218;5.172;2022-12-10T10:35:45;100954.03;;;-1.20;100.00
65173;BME280;51758;52.218;5.172;2022-12-10T10:38:18;100956.09;;;-1.13;100.00
65173;BME280;51758;52.218;5.172;2022-12-10T10:40:50;100957.84;;;-1.00;100.00
65173;BME280;51758;52.218;5.172;2022-12-10T10:43:21;100952.63;;;-1.12;100.00
65173;BME280;51758;52.218;5.172;2022-12-10T10:45:54;100946.09;;;-1.03;100.00
65173;BME280;51758;52.218;5.172;2022-12-10T10:48:27;100948.22;;;-1.10;100.00
65173;BME280;51758;52.218;5.172;2022-12-10T10:50:57;100953.22;;;-1.21;100.00
65173;BME280;51758;52.218;5.172;2022-12-10T10:53:40;100950.38;;;-1.03;100.00
65173;BME280;51758;52.218;5.172;2022-12-10T10:56:12;100950.03;;;-1.12;100.00
65173;BME280;51758;52.218;5.172;2022-12-10T10:58:50;100952.00;;;-1.28;100.00
65173;BME280;51758;52.218;5.172;2022-12-10T11:01:22;100921.59;;;-1.47;100.00
65173;BME280;51758;52.218;5.172;2022-12-10T11:03:54;100965.50;;;-1.13;100.00
65173;BME280;51758;52.218;5.172;2022-12-10T11:06:23;100954.44;;;-1.14;100.00
65173;BME280;51758;52.218;5.172;2022-12-10T11:08:54;100952.44;;;-0.83;100.00
65173;BME280;51758;52.218;5.172;2022-12-10T11:11:31;100950.88;;;-0.98;100.00
65173;BME280;51758;52.218;5.172;2022-12-10T11:14:13;100949.13;;;-1.11;100.00
65173;BME280;51758;52.218;5.172;2022-12-10T11:16:43;100953.66;;;-1.14;100.00
65173;BME280;51758;52.218;5.172;2022-12-10T11:19:19;100954.78;;;-1.18;100.00
65173;BME280;51758;52.218;5.172;2022-12-10T11:21:47;100952.72;;;-1.13;100.00
65173;BME280;51758;52.218;5.172;2022-12-10T11:24:18;100951.81;;;-0.99;100.00
65173;BME280;51758;52.218;5.172;2022-12-10T11:26:55;100909.88;;;-1.11;100.00
65173;BME280;51758;52.218;5.172;2022-12-10T11:29:33;100940.44;;;-0.95;100.00
65173;BME280;51758;52.218;5.172;2022-12-10T11:32:15;100933.94;;;-1.14;100.00
65173;BME280;51758;52.218;5.172;2022-12-10T11:34:57;100943.19;;;-0.98;100.00
65173;BME280;51758;52.218;5.172;2022-12-10T11:37:31;100942.38;;;-0.99;100.00
65173;BME280;51758;52.218;5.172;2022-12-10T11:40:28;100937.88;;;-0.95;100.00
65173;BME280;51758;52.218;5.172;2022-12-10T11:43:08;100934.41;;;-0.94;100.00
65173;BME280;51758;52.218;5.172;2022-12-10T11:45:50;100936.84;;;-0.93;100.00
65173;BME280;51758;52.218;5.172;2022-12-10T11:48:32;100935.31;;;-0.95;100.00
65173;BME280;51758;52.218;5.172;2022-12-10T11:51:11;100930.19;;;-0.83;100.00
65173;BME280;51758;52.218;5.172;2022-12-10T11:53:58;100940.53;;;-0.84;100.00
65173;BME280;51758;52.218;5.172;2022-12-10T11:56:31;100905.47;;;-0.96;100.00
65173;BME280;51758;52.218;5.172;2022-12-10T11:59:14;100942.47;;;-0.88;100.00
65173;BME280;51758;52.218;5.172;2022-12-10T12:01:56;100946.19;;;-0.66;100.00
65173;BME280;51758;52.218;5.172;2022-12-10T12:04:33;100941.88;;;-0.66;100.00
65173;BME280;51758;52.218;5.172;2022-12-10T12:07:24;100942.47;;;-0.75;100.00
65173;BME280;51758;52.218;5.172;2022-12-10T12:10:17;100943.53;;;-1.03;100.00
65173;BME280;51758;52.218;5.172;2022-12-10T12:12:52;100944.81;;;-1.10;100.00
65173;BME280;51758;52.218;5.172;2022-12-10T12:15:32;100943.59;;;-1.17;100.00
65173;BME280;51758;52.218;5.172;2022-12-10T12:18:04;100937.88;;;-0.95;100.00
65173;BME280;51758;52.218;5.172;2022-12-10T12:20:37;100945.78;;;-0.73;100.00
65173;BME280;51758;52.218;5.172;2022-12-10T12:23:14;100941.06;;;-0.66;100.00
65173;BME280;51758;52.218;5.172;2022-12-10T12:25:46;100936.75;;;-0.91;100.00
65173;BME280;51758;52.218;5.172;2022-12-10T12:28:20;100937.59;;;-0.78;100.00
65173;BME280;51758;52.218;5.172;2022-12-10T12:30:53;100932.44;;;-0.65;100.00
65173;BME280;51758;52.218;5.172;2022-12-10T12:33:28;100937.97;;;-0.84;100.00
65173;BME280;51758;52.218;5.172;2022-12-10T12:36:03;100932.66;;;-0.81;100.00
65173;BME280;51758;52.218;5.172;2022-12-10T12:38:41;100942.19;;;-0.70;100.00
65173;BME280;51758;52.218;5.172;2022-12-10T12:41:15;100934.28;;;-0.55;100.00
65173;BME280;51758;52.218;5.172;2022-12-10T12:43:48;100920.34;;;-0.63;100.00
65173;BME280;51758;52.218;5.172;2022-12-10T12:46:23;100933.88;;;-0.74;100.00
65173;BME280;51758;52.218;5.172;2022-12-10T12:48:57;100934.09;;;-0.77;100.00
65173;BME280;51758;52.218;5.172;2022-12-10T12:51:33;100933.88;;;-0.87;100.00
65173;BME280;51758;52.218;5.172;2022-12-10T12:54:02;100924.44;;;-0.74;100.00
65173;BME280;51758;52.218;5.172;2022-12-10T12:56:42;100932.75;;;-0.70;100.00
65173;BME280;51758;52.218;5.172;2022-12-10T12:59:26;100929.56;;;-0.61;100.00